Time;durP1;ratioP1;P1;durP2;ratioP2;P2;SDS_P1;SDS_P2;PMS_P1;PMS_P2;Temp;Humidity;BMP_temperature;BMP_pressure;BME280_temperature;BME280_humidity;BME280_pressure;Samples;Min_cycle;Max_cycle;Signal;HPM_P1;HPM_P2
2023/05/28 00:02:29;;;;;;;4.60;4.35;;;;;;;;;;4241029;28;20046;-60
2023/05/28 00:04:49;;;;;;;4.82;4.47;;;;;;;;;;4249814;28;20051;-59
2023/05/28 00:07:10;;;;;;;4.95;4.75;;;;;;;;;;4241492;28;20055;-59
2023/05/28 00:09:31;;;;;;;5.70;5.50;;;;;;;;;;4238928;28;20226;-59
2023/05/28 00:11:51;;;;;;;6.25;5.85;;;;;;;;;;4247433;28;20061;-59
2023/05/28 00:14:11;;;;;;;5.13;4.90;;;;;;;;;;4251101;28;20046;-59
2023/05/28 00:16:35;;;;;;;5.22;5.13;;;;;;;;;;4241326;28;20070;-59
2023/05/28 00:18:55;;;;;;;5.28;5.07;;;;;;;;;;4242850;28;20078;-59
2023/05/28 00:21:15;;;;;;;5.35;5.05;;;;;;;;;;4249310;28;20264;-59
2023/05/28 00:23:37;;;;;;;4.93;4.63;;;;;;;;;;4244588;28;20046;-59
2023/05/28 00:25:57;;;;;;;5.78;5.40;;;;;;;;;;4242292;28;20050;-59
2023/05/28 00:28:17;;;;;;;5.57;5.47;;;;;;;;;;4246747;28;20046;-59
2023/05/28 00:30:37;;;;;;;5.35;5.15;;;;;;;;;;4263306;27;20049;-59
2023/05/28 00:32:58;;;;;;;6.05;5.65;;;;;;;;;;4244586;28;20388;-59
2023/05/28 00:35:18;;;;;;;7.28;6.57;;;;;;;;;;4248147;28;20065;-59
2023/05/28 00:37:38;;;;;;;6.10;5.80;;;;;;;;;;4246389;28;20277;-59
2023/05/28 00:39:58;;;;;;;6.35;5.80;;;;;;;;;;4246434;28;20074;-59
2023/05/28 00:42:18;;;;;;;6.13;5.82;;;;;;;;;;4248384;28;20103;-59
2023/05/28 00:44:39;;;;;;;7.75;6.18;;;;;;;;;;4242267;28;20047;-59
2023/05/28 00:46:59;;;;;;;4.97;4.82;;;;;;;;;;4248090;28;20108;-59
2023/05/28 00:49:21;;;;;;;6.60;5.50;;;;;;;;;;4244993;28;20227;-59
2023/05/28 00:51:41;;;;;;;5.53;5.22;;;;;;;;;;4250795;28;20045;-59
2023/05/28 00:54:02;;;;;;;6.25;6.00;;;;;;;;;;4243211;28;20088;-59
2023/05/28 00:56:24;;;;;;;6.97;6.38;;;;;;;;;;4250287;28;20104;-59
2023/05/28 00:58:44;;;;;;;5.70;5.50;;;;;;;;;;4241140;28;20279;-59
2023/05/28 01:01:04;;;;;;;5.93;5.63;;;;;;;;;;4248180;28;20072;-59
2023/05/28 01:03:25;;;;;;;5.95;5.45;;;;;;;;;;4244740;28;20051;-59
2023/05/28 01:05:45;;;;;;;5.95;5.63;;;;;;;;;;4246695;28;20042;-59
2023/05/28 01:08:06;;;;;;;6.40;6.05;;;;;;;;;;4242078;28;20102;-59
2023/05/28 01:10:27;;;;;;;5.70;5.50;;;;;;;;;;4245232;28;20115;-59
2023/05/28 01:12:48;;;;;;;5.25;4.85;;;;;;;;;;4248785;28;20050;-59
2023/05/28 01:15:09;;;;;;;5.72;5.43;;;;;;;;;;4241014;28;20070;-59
2023/05/28 01:17:30;;;;;;;6.70;5.72;;;;;;;;;;4239006;28;20062;-59
2023/05/28 01:19:50;;;;;;;7.03;6.70;;;;;;;;;;4246208;28;20041;-59
2023/05/28 01:22:12;;;;;;;5.45;5.25;;;;;;;;;;4248205;28;20095;-59
2023/05/28 01:24:33;;;;;;;5.68;5.47;;;;;;;;;;4238320;28;20054;-59
2023/05/28 01:26:53;;;;;;;6.50;6.07;;;;;;;;;;4241162;28;20234;-59
2023/05/28 01:29:14;;;;;;;6.00;5.70;;;;;;;;;;4247319;28;20050;-59
2023/05/28 01:31:35;;;;;;;6.90;6.32;;;;;;;;;;4243774;28;20366;-59
2023/05/28 01:33:55;;;;;;;6.15;5.93;;;;;;;;;;4237160;28;20045;-59
2023/05/28 01:36:31;;;;;;;7.15;6.85;;;;;;;;;;4244182;28;20081;-59
2023/05/28 01:38:53;;;;;;;5.70;5.60;;;;;;;;;;4245093;28;20053;-59
2023/05/28 01:41:14;;;;;;;6.85;6.25;;;;;;;;;;4237844;28;20407;-59
2023/05/28 01:43:34;;;;;;;6.68;6.47;;;;;;;;;;4237262;28;20080;-59
2023/05/28 01:45:55;;;;;;;6.90;6.60;;;;;;;;;;4250097;28;20062;-59
2023/05/28 01:48:15;;;;;;;7.18;6.88;;;;;;;;;;4241474;28;20062;-59
2023/05/28 01:50:35;;;;;;;5.95;5.75;;;;;;;;;;4234860;28;20247;-59
2023/05/28 01:52:56;;;;;;;7.18;6.32;;;;;;;;;;4240902;28;20050;-59
2023/05/28 01:55:16;;;;;;;7.00;6.60;;;;;;;;;;4250344;28;20066;-59
2023/05/28 01:57:36;;;;;;;6.20;5.82;;;;;;;;;;4235660;28;20140;-59
2023/05/28 01:59:57;;;;;;;6.72;6.53;;;;;;;;;;4234051;28;20370;-59
2023/05/28 02:02:17;;;;;;;6.35;5.88;;;;;;;;;;4239059;28;20141;-59
2023/05/28 02:04:38;;;;;;;6.38;6.18;;;;;;;;;;4245268;28;20130;-59
2023/05/28 02:06:58;;;;;;;5.85;5.57;;;;;;;;;;4232907;28;20066;-59
2023/05/28 02:09:18;;;;;;;6.93;6.60;;;;;;;;;;4239342;28;20231;-59
2023/05/28 02:11:38;;;;;;;7.05;6.57;;;;;;;;;;4236931;28;20045;-59
2023/05/28 02:13:59;;;;;;;7.43;6.78;;;;;;;;;;4236714;28;20073;-59
2023/05/28 02:16:20;;;;;;;7.03;6.82;;;;;;;;;;4232760;28;20047;-59
2023/05/28 02:18:40;;;;;;;7.47;7.18;;;;;;;;;;4235629;28;20047;-59
2023/05/28 02:21:01;;;;;;;6.72;6.43;;;;;;;;;;4237985;28;20049;-59
2023/05/28 02:23:21;;;;;;;6.88;6.28;;;;;;;;;;4230384;28;20239;-59
2023/05/28 02:25:41;;;;;;;6.35;5.97;;;;;;;;;;4237869;28;20362;-59
2023/05/28 02:28:03;;;;;;;6.28;5.97;;;;;;;;;;4233026;28;20051;-59
2023/05/28 02:30:24;;;;;;;8.07;6.77;;;;;;;;;;4237517;28;20235;-60
2023/05/28 02:32:44;;;;;;;6.63;6.43;;;;;;;;;;4227477;28;20277;-59
2023/05/28 02:35:06;;;;;;;8.23;7.65;;;;;;;;;;4232813;28;20055;-59
2023/05/28 02:37:26;;;;;;;7.40;7.00;;;;;;;;;;4230379;28;20548;-59
2023/05/28 02:39:46;;;;;;;7.25;6.95;;;;;;;;;;4230680;28;20088;-59
2023/05/28 02:42:07;;;;;;;7.30;6.78;;;;;;;;;;4235941;28;20539;-59
2023/05/28 02:44:27;;;;;;;6.22;6.13;;;;;;;;;;4230455;28;20103;-59
2023/05/28 02:46:47;;;;;;;6.50;6.20;;;;;;;;;;4225525;28;20116;-59
2023/05/28 02:49:08;;;;;;;6.55;6.25;;;;;;;;;;4228442;28;20423;-59
2023/05/28 02:51:28;;;;;;;6.45;6.15;;;;;;;;;;4232038;28;20046;-59
2023/05/28 02:53:48;;;;;;;6.43;5.97;;;;;;;;;;4227757;28;20232;-59
2023/05/28 02:56:08;;;;;;;8.18;7.30;;;;;;;;;;4223667;28;20101;-59
2023/05/28 02:58:30;;;;;;;6.28;6.07;;;;;;;;;;4228292;28;20055;-59
2023/05/28 03:00:50;;;;;;;6.10;5.95;;;;;;;;;;4230821;28;20263;-59
2023/05/28 03:03:10;;;;;;;6.35;6.05;;;;;;;;;;4229628;28;20051;-59
2023/05/28 03:05:32;;;;;;;7.10;6.75;;;;;;;;;;4223621;28;20066;-59
2023/05/28 03:07:52;;;;;;;6.90;6.53;;;;;;;;;;4234557;28;20047;-59
2023/05/28 03:10:12;;;;;;;6.38;6.15;;;;;;;;;;4233236;28;20097;-59
2023/05/28 03:12:33;;;;;;;6.80;6.50;;;;;;;;;;4230220;28;20062;-59
2023/05/28 03:14:53;;;;;;;6.10;5.80;;;;;;;;;;4240870;28;20050;-59
2023/05/28 03:17:13;;;;;;;6.45;6.07;;;;;;;;;;4236746;28;20060;-59
2023/05/28 03:19:33;;;;;;;7.60;7.30;;;;;;;;;;4232138;28;20042;-59
2023/05/28 03:21:54;;;;;;;7.43;7.20;;;;;;;;;;4232583;28;20050;-59
2023/05/28 03:24:14;;;;;;;6.50;6.20;;;;;;;;;;4248012;28;20077;-59
2023/05/28 03:26:36;;;;;;;8.27;7.88;;;;;;;;;;4235577;28;20107;-59
2023/05/28 03:28:56;;;;;;;6.90;6.65;;;;;;;;;;4235174;28;20062;-59
2023/05/28 03:31:16;;;;;;;7.35;6.93;;;;;;;;;;4245730;28;20066;-60
2023/05/28 03:33:36;;;;;;;7.03;6.70;;;;;;;;;;4244485;28;20231;-60
2023/05/28 03:35:57;;;;;;;6.22;6.10;;;;;;;;;;4234326;28;20086;-59
2023/05/28 03:38:17;;;;;;;6.88;6.57;;;;;;;;;;4234471;28;20141;-59
2023/05/28 03:40:37;;;;;;;7.65;7.35;;;;;;;;;;4240692;27;20089;-59
2023/05/28 03:42:57;;;;;;;8.10;7.70;;;;;;;;;;4237806;28;20100;-59
2023/05/28 03:45:17;;;;;;;7.80;7.25;;;;;;;;;;4235391;28;20437;-59
2023/05/28 03:47:38;;;;;;;7.10;6.63;;;;;;;;;;4242584;28;20059;-59
2023/05/28 03:49:59;;;;;;;7.60;7.40;;;;;;;;;;4250711;28;20182;-59
2023/05/28 03:52:20;;;;;;;7.25;6.90;;;;;;;;;;4236783;28;20109;-59
2023/05/28 03:54:41;;;;;;;6.63;6.18;;;;;;;;;;4241529;28;20046;-59
2023/05/28 03:57:01;;;;;;;6.80;6.63;;;;;;;;;;4235727;28;20064;-59
2023/05/28 03:59:22;;;;;;;6.18;5.97;;;;;;;;;;4247524;28;20077;-59
2023/05/28 04:01:42;;;;;;;5.82;5.63;;;;;;;;;;4236044;28;20051;-59
2023/05/28 04:04:03;;;;;;;6.97;6.68;;;;;;;;;;4247187;28;20141;-60
2023/05/28 04:06:24;;;;;;;6.90;6.60;;;;;;;;;;4237825;28;20080;-60
2023/05/28 04:08:44;;;;;;;6.55;5.97;;;;;;;;;;4244315;28;20043;-59
2023/05/28 04:11:05;;;;;;;6.82;6.63;;;;;;;;;;4249101;28;20042;-59
2023/05/28 04:13:25;;;;;;;7.68;7.07;;;;;;;;;;4253150;27;20147;-59
2023/05/28 04:15:46;;;;;;;6.55;6.25;;;;;;;;;;4245510;28;20109;-59
2023/05/28 04:18:06;;;;;;;6.88;6.43;;;;;;;;;;4247283;28;20042;-59
2023/05/28 04:20:27;;;;;;;6.90;6.60;;;;;;;;;;4248869;27;20128;-59
2023/05/28 04:22:48;;;;;;;6.78;6.22;;;;;;;;;;4237161;28;20062;-59
2023/05/28 04:25:08;;;;;;;6.38;6.13;;;;;;;;;;4245352;28;20073;-59
2023/05/28 04:27:28;;;;;;;6.57;6.47;;;;;;;;;;4242031;28;20081;-59
2023/05/28 04:29:48;;;;;;;7.35;6.78;;;;;;;;;;4243489;28;20058;-59
2023/05/28 04:32:09;;;;;;;6.72;6.53;;;;;;;;;;4240094;28;20109;-59
2023/05/28 04:34:29;;;;;;;7.75;6.65;;;;;;;;;;4245448;28;20065;-59
2023/05/28 04:36:51;;;;;;;7.20;7.05;;;;;;;;;;4265484;27;20061;-59
2023/05/28 04:39:11;;;;;;;7.28;6.93;;;;;;;;;;4240935;28;20043;-59
2023/05/28 04:41:31;;;;;;;6.80;6.50;;;;;;;;;;4241482;28;20057;-59
2023/05/28 04:43:52;;;;;;;6.55;6.35;;;;;;;;;;4242888;28;20112;-59
2023/05/28 04:46:13;;;;;;;6.93;6.53;;;;;;;;;;4247144;28;20080;-59
2023/05/28 04:48:35;;;;;;;6.70;6.50;;;;;;;;;;4241281;28;20366;-59
2023/05/28 04:50:56;;;;;;;7.28;6.63;;;;;;;;;;4247955;28;20047;-59
2023/05/28 04:53:17;;;;;;;7.53;6.97;;;;;;;;;;4243626;28;20046;-59
2023/05/28 04:55:37;;;;;;;7.15;6.93;;;;;;;;;;4245092;28;20082;-59
2023/05/28 04:57:57;;;;;;;8.02;7.13;;;;;;;;;;4242949;28;20073;-59
2023/05/28 05:00:18;;;;;;;6.93;6.28;;;;;;;;;;4245313;28;20089;-59
2023/05/28 05:02:42;;;;;;;5.80;5.60;;;;;;;;;;4246310;28;20077;-59
2023/05/28 05:05:02;;;;;;;6.88;6.28;;;;;;;;;;4244605;28;20082;-59
2023/05/28 05:07:23;;;;;;;6.65;6.25;;;;;;;;;;4249377;28;20046;-59
2023/05/28 05:09:43;;;;;;;7.28;7.07;;;;;;;;;;4242467;28;20065;-59
2023/05/28 05:12:03;;;;;;;6.53;6.07;;;;;;;;;;4248333;28;20112;-59
2023/05/28 05:14:24;;;;;;;7.30;7.10;;;;;;;;;;4244329;28;20508;-59
2023/05/28 05:16:45;;;;;;;8.70;6.10;;;;;;;;;;4245732;28;20066;-59
2023/05/28 05:19:06;;;;;;;6.60;6.38;;;;;;;;;;4244444;28;20076;-59
2023/05/28 05:21:26;;;;;;;5.90;5.70;;;;;;;;;;4244733;28;20058;-59
2023/05/28 05:23:46;;;;;;;6.55;6.28;;;;;;;;;;4249850;28;20111;-59
2023/05/28 05:26:12;;;;;;;6.05;5.78;;;;;;;;;;4241432;28;20051;-59
2023/05/28 05:28:32;;;;;;;6.82;6.63;;;;;;;;;;4246420;28;20042;-59
2023/05/28 05:30:53;;;;;;;6.97;6.68;;;;;;;;;;4248217;27;20408;-59
2023/05/28 05:33:13;;;;;;;6.55;6.15;;;;;;;;;;4244828;28;20160;-60
2023/05/28 05:35:33;;;;;;;6.07;5.97;;;;;;;;;;4245138;28;20119;-59
2023/05/28 05:37:53;;;;;;;6.07;5.63;;;;;;;;;;4244142;28;20448;-59
2023/05/28 05:40:14;;;;;;;5.90;5.70;;;;;;;;;;4250127;27;20425;-59
2023/05/28 05:42:34;;;;;;;6.75;6.40;;;;;;;;;;4240607;28;20050;-59
2023/05/28 05:44:54;;;;;;;7.22;6.93;;;;;;;;;;4248317;28;20046;-59
2023/05/28 05:47:15;;;;;;;8.35;6.43;;;;;;;;;;4237311;28;20300;-59
2023/05/28 05:49:35;;;;;;;6.70;6.20;;;;;;;;;;4247344;28;20396;-61
2023/05/28 05:51:55;;;;;;;7.47;7.00;;;;;;;;;;4241419;28;20135;-61
2023/05/28 05:54:15;;;;;;;8.13;7.43;;;;;;;;;;4244814;28;20074;-61
2023/05/28 05:56:37;;;;;;;6.72;6.53;;;;;;;;;;4238211;28;20050;-61
2023/05/28 05:58:58;;;;;;;6.43;6.28;;;;;;;;;;4243478;28;20051;-61
2023/05/28 06:01:18;;;;;;;4.85;4.75;;;;;;;;;;4248446;28;20088;-62
2023/05/28 06:03:38;;;;;;;5.32;5.03;;;;;;;;;;4237615;28;20235;-61
2023/05/28 06:05:59;;;;;;;6.88;6.47;;;;;;;;;;4234710;28;20042;-62
2023/05/28 06:08:20;;;;;;;5.70;5.47;;;;;;;;;;4246244;28;20099;-62
2023/05/28 06:10:41;;;;;;;5.10;4.90;;;;;;;;;;4246641;28;20307;-62
2023/05/28 06:13:01;;;;;;;5.75;5.65;;;;;;;;;;4234454;28;20078;-62
2023/05/28 06:15:21;;;;;;;5.00;4.80;;;;;;;;;;4235851;28;20083;-62
2023/05/28 06:17:43;;;;;;;5.40;5.18;;;;;;;;;;4249953;28;20046;-62
2023/05/28 06:20:06;;;;;;;5.80;5.20;;;;;;;;;;4237367;28;20276;-62
2023/05/28 06:22:27;;;;;;;5.65;5.43;;;;;;;;;;4233937;28;20405;-62
2023/05/28 06:24:49;;;;;;;5.10;4.97;;;;;;;;;;4239441;28;20385;-62
2023/05/28 06:27:10;;;;;;;5.43;5.28;;;;;;;;;;4244616;28;20086;-62
2023/05/28 06:29:30;;;;;;;4.40;4.30;;;;;;;;;;4233342;28;20127;-63
2023/05/28 06:31:50;;;;;;;4.30;4.20;;;;;;;;;;4230233;28;20074;-63
2023/05/28 06:34:10;;;;;;;4.13;3.90;;;;;;;;;;4248296;28;20089;-63
2023/05/28 06:36:30;;;;;;;6.60;4.00;;;;;;;;;;4235413;28;20549;-63
2023/05/28 06:38:50;;;;;;;5.00;4.80;;;;;;;;;;4241617;28;20230;-63
2023/05/28 06:41:10;;;;;;;5.07;4.78;;;;;;;;;;4230288;28;20369;-63
2023/05/28 06:43:31;;;;;;;4.50;4.30;;;;;;;;;;4236326;28;20101;-63
2023/05/28 06:45:51;;;;;;;4.68;4.38;;;;;;;;;;4232358;28;20239;-63
2023/05/28 06:48:12;;;;;;;13.13;4.22;;;;;;;;;;4228954;28;20273;-63
2023/05/28 06:50:32;;;;;;;3.95;3.75;;;;;;;;;;4229404;28;20051;-63
2023/05/28 06:52:52;;;;;;;4.20;3.83;;;;;;;;;;4233783;28;20047;-63
2023/05/28 06:55:12;;;;;;;4.10;4.00;;;;;;;;;;4229173;28;20051;-63
2023/05/28 06:57:33;;;;;;;4.55;4.35;;;;;;;;;;4225284;28;20051;-63
2023/05/28 06:59:53;;;;;;;5.80;3.55;;;;;;;;;;4228759;28;20044;-63
2023/05/28 07:02:14;;;;;;;3.60;3.50;;;;;;;;;;4231331;28;20265;-63
2023/05/28 07:04:35;;;;;;;3.60;3.40;;;;;;;;;;4227176;28;20277;-64
2023/05/28 07:06:55;;;;;;;2.95;2.85;;;;;;;;;;4229658;28;20054;-63
2023/05/28 07:09:15;;;;;;;3.50;3.40;;;;;;;;;;4226926;28;20239;-63
2023/05/28 07:11:35;;;;;;;3.45;3.25;;;;;;;;;;4228946;28;20059;-63
2023/05/28 07:13:56;;;;;;;3.17;2.97;;;;;;;;;;4223561;28;20075;-63
2023/05/28 07:16:16;;;;;;;3.30;3.20;;;;;;;;;;4225750;28;20108;-63
2023/05/28 07:18:36;;;;;;;3.33;3.13;;;;;;;;;;4227559;28;20396;-63
2023/05/28 07:20:57;;;;;;;2.50;2.42;;;;;;;;;;4227071;28;20223;-63
2023/05/28 07:23:17;;;;;;;3.30;3.20;;;;;;;;;;4231473;28;20058;-63
2023/05/28 07:25:38;;;;;;;2.88;2.75;;;;;;;;;;4226198;28;20066;-63
2023/05/28 07:27:58;;;;;;;3.67;3.33;;;;;;;;;;4234082;28;20050;-64
2023/05/28 07:30:19;;;;;;;2.50;2.40;;;;;;;;;;4230910;28;20289;-63
2023/05/28 07:32:39;;;;;;;1.92;1.83;;;;;;;;;;4229570;28;20043;-64
2023/05/28 07:34:59;;;;;;;3.45;3.25;;;;;;;;;;4229536;28;20047;-64
2023/05/28 07:37:20;;;;;;;3.28;3.10;;;;;;;;;;4229305;28;20093;-64
2023/05/28 07:39:41;;;;;;;2.78;2.67;;;;;;;;;;4240647;28;20377;-63
2023/05/28 07:42:01;;;;;;;3.28;2.67;;;;;;;;;;4229930;28;20378;-64
2023/05/28 07:44:21;;;;;;;3.55;2.70;;;;;;;;;;4233357;28;20115;-64
2023/05/28 07:46:42;;;;;;;2.35;2.15;;;;;;;;;;4235372;28;20050;-64
2023/05/28 07:49:03;;;;;;;2.45;2.35;;;;;;;;;;4233366;28;20092;-64
2023/05/28 07:51:23;;;;;;;2.30;2.10;;;;;;;;;;4230389;28;20055;-64
2023/05/28 07:53:43;;;;;;;2.72;2.63;;;;;;;;;;4239002;28;20116;-64
2023/05/28 07:56:04;;;;;;;2.25;2.15;;;;;;;;;;4248455;28;20092;-64
2023/05/28 07:58:25;;;;;;;2.45;2.00;;;;;;;;;;4236714;28;20046;-64
2023/05/28 08:00:45;;;;;;;1.90;1.60;;;;;;;;;;4233596;28;20286;-64
2023/05/28 08:03:06;;;;;;;2.33;2.10;;;;;;;;;;4248480;28;20077;-64
2023/05/28 08:05:27;;;;;;;2.17;2.08;;;;;;;;;;4240040;28;20046;-64
2023/05/28 08:07:47;;;;;;;2.75;1.63;;;;;;;;;;4236913;28;20106;-64
2023/05/28 08:10:07;;;;;;;2.00;1.90;;;;;;;;;;4239098;28;20286;-64
2023/05/28 08:12:28;;;;;;;2.95;2.10;;;;;;;;;;4249674;28;20281;-64
2023/05/28 08:14:48;;;;;;;2.05;1.73;;;;;;;;;;4239747;28;20396;-64
2023/05/28 08:17:09;;;;;;;1.73;1.63;;;;;;;;;;4235379;28;20059;-64
2023/05/28 08:19:29;;;;;;;1.70;1.60;;;;;;;;;;4245147;28;20050;-64
2023/05/28 08:21:50;;;;;;;2.25;2.10;;;;;;;;;;4246721;28;20081;-64
2023/05/28 08:24:10;;;;;;;2.78;2.33;;;;;;;;;;4239026;28;20306;-64
2023/05/28 08:26:31;;;;;;;1.77;1.67;;;;;;;;;;4240361;28;20107;-64
2023/05/28 08:28:51;;;;;;;1.63;1.52;;;;;;;;;;4249558;28;20362;-64
2023/05/28 08:31:11;;;;;;;1.63;1.52;;;;;;;;;;4243074;28;20081;-64
2023/05/28 08:33:31;;;;;;;1.67;1.58;;;;;;;;;;4237453;28;20058;-64
2023/05/28 08:35:52;;;;;;;4.70;1.58;;;;;;;;;;4244828;28;20302;-65
2023/05/28 08:38:12;;;;;;;1.58;1.58;;;;;;;;;;4246353;28;20069;-64
2023/05/28 08:40:35;;;;;;;1.92;1.55;;;;;;;;;;4237990;28;20111;-64
2023/05/28 08:42:56;;;;;;;1.45;1.42;;;;;;;;;;4242285;28;20046;-65
2023/05/28 08:45:16;;;;;;;2.17;2.03;;;;;;;;;;4246065;28;20088;-64
2023/05/28 08:47:37;;;;;;;1.65;1.60;;;;;;;;;;4248622;28;20119;-64
2023/05/28 08:50:00;;;;;;;2.35;2.13;;;;;;;;;;4243235;28;20072;-64
2023/05/28 08:52:20;;;;;;;2.28;1.80;;;;;;;;;;4245520;28;20046;-64
2023/05/28 08:54:42;;;;;;;2.95;1.40;;;;;;;;;;4250756;28;20062;-64
2023/05/28 08:57:02;;;;;;;2.00;1.90;;;;;;;;;;4245212;28;20047;-64
2023/05/28 08:59:24;;;;;;;3.20;2.25;;;;;;;;;;4247839;28;20039;-64
2023/05/28 09:01:45;;;;;;;2.25;1.83;;;;;;;;;;4242238;28;20084;-64
2023/05/28 09:04:05;;;;;;;1.50;1.40;;;;;;;;;;4246844;28;20080;-65
2023/05/28 09:06:26;;;;;;;1.38;1.38;;;;;;;;;;4244637;28;20046;-65
2023/05/28 09:08:46;;;;;;;4.20;1.50;;;;;;;;;;4248568;28;20247;-65
2023/05/28 09:11:10;;;;;;;1.55;1.50;;;;;;;;;;4245218;28;20357;-65
2023/05/28 09:13:32;;;;;;;1.77;1.20;;;;;;;;;;4245067;28;20058;-65
2023/05/28 09:15:53;;;;;;;1.95;1.70;;;;;;;;;;4249022;28;20050;-65
2023/05/28 09:18:15;;;;;;;2.03;1.88;;;;;;;;;;4243953;28;20043;-65
2023/05/28 09:20:35;;;;;;;1.20;1.20;;;;;;;;;;4247872;28;20046;-64
2023/05/28 09:23:06;;;;;;;1.27;1.27;;;;;;;;;;4243133;28;20096;-65
2023/05/28 09:25:26;;;;;;;2.17;1.40;;;;;;;;;;4247145;28;20051;-64
2023/05/28 09:27:48;;;;;;;1.58;1.48;;;;;;;;;;4243384;28;20137;-64
2023/05/28 09:30:09;;;;;;;1.85;1.40;;;;;;;;;;4248252;28;20047;-65
2023/05/28 09:32:29;;;;;;;2.25;1.20;;;;;;;;;;4240693;28;20079;-65
2023/05/28 09:34:50;;;;;;;2.00;1.15;;;;;;;;;;4245463;28;20536;-64
2023/05/28 09:37:11;;;;;;;1.38;1.20;;;;;;;;;;4246033;28;20069;-65
2023/05/28 09:39:31;;;;;;;1.63;1.52;;;;;;;;;;4245607;28;20239;-65
2023/05/28 09:41:59;;;;;;;1.50;1.40;;;;;;;;;;4239397;28;20101;-64
2023/05/28 09:44:20;;;;;;;1.60;1.50;;;;;;;;;;4245116;28;20312;-65
2023/05/28 09:46:46;;;;;;;1.30;1.30;;;;;;;;;;4244754;28;20092;-65
2023/05/28 09:49:07;;;;;;;3.42;1.20;;;;;;;;;;4240035;28;20088;-65
2023/05/28 09:51:29;;;;;;;1.20;1.10;;;;;;;;;;4240040;28;20043;-65
2023/05/28 09:53:50;;;;;;;1.40;1.40;;;;;;;;;;4245839;28;20081;-65
2023/05/28 09:56:11;;;;;;;1.33;1.23;;;;;;;;;;4242930;28;20078;-64
2023/05/28 09:58:34;;;;;;;4.18;1.30;;;;;;;;;;4237639;28;20372;-65
2023/05/28 10:00:55;;;;;;;1.20;1.10;;;;;;;;;;4246578;28;20046;-65
2023/05/28 10:03:27;;;;;;;1.23;1.23;;;;;;;;;;4249558;28;20046;-64
2023/05/28 10:05:51;;;;;;;2.53;1.23;;;;;;;;;;4238514;28;20089;-64
2023/05/28 10:08:14;;;;;;;1.20;1.10;;;;;;;;;;4237495;28;20386;-65
2023/05/28 10:10:35;;;;;;;1.08;1.08;;;;;;;;;;4247930;28;20053;-64
2023/05/28 10:12:56;;;;;;;1.60;1.20;;;;;;;;;;4241953;28;20055;-64
2023/05/28 10:15:17;;;;;;;1.30;1.20;;;;;;;;;;4235547;28;20087;-65
2023/05/28 10:17:38;;;;;;;1.70;1.38;;;;;;;;;;4242585;27;20097;-64
2023/05/28 10:19:58;;;;;;;1.40;1.30;;;;;;;;;;4250547;28;20115;-64
2023/05/28 10:22:19;;;;;;;1.08;1.08;;;;;;;;;;4236505;28;20069;-65
2023/05/28 10:24:40;;;;;;;1.38;1.25;;;;;;;;;;4234895;28;20078;-64
2023/05/28 10:27:00;;;;;;;1.52;1.42;;;;;;;;;;4238810;28;20051;-65
2023/05/28 10:29:20;;;;;;;1.88;1.40;;;;;;;;;;4246169;28;20061;-65
2023/05/28 10:31:41;;;;;;;1.85;1.08;;;;;;;;;;4233026;28;20073;-65
2023/05/28 10:34:01;;;;;;;1.45;1.00;;;;;;;;;;4244743;28;20373;-65
2023/05/28 10:36:22;;;;;;;0.90;0.90;;;;;;;;;;4238345;28;20107;-65
2023/05/28 10:39:03;;;;;;;1.17;1.17;;;;;;;;;;4239619;28;20440;-65
2023/05/28 10:41:24;;;;;;;1.10;1.10;;;;;;;;;;4236015;28;20069;-65
2023/05/28 10:43:45;;;;;;;1.35;1.33;;;;;;;;;;4234376;28;20105;-65
2023/05/28 10:46:18;;;;;;;0.95;0.95;;;;;;;;;;4241941;28;20050;-65
2023/05/28 10:48:41;;;;;;;1.00;1.00;;;;;;;;;;4229762;28;20081;-65
2023/05/28 10:51:05;;;;;;;1.27;1.00;;;;;;;;;;4239846;28;20079;-65
2023/05/28 10:53:26;;;;;;;1.00;1.00;;;;;;;;;;4229309;28;20062;-65
2023/05/28 10:55:48;;;;;;;1.00;1.00;;;;;;;;;;4238744;28;20063;-65
2023/05/28 10:58:11;;;;;;;1.35;1.35;;;;;;;;;;4240235;28;20103;-64
2023/05/28 11:00:31;;;;;;;5.15;1.10;;;;;;;;;;4231218;28;20107;-63
2023/05/28 11:02:53;;;;;;;1.00;1.00;;;;;;;;;;4226614;28;20072;-63
2023/05/28 11:05:13;;;;;;;1.15;0.98;;;;;;;;;;4230108;28;20070;-63
2023/05/28 11:07:35;;;;;;;1.63;1.08;;;;;;;;;;4235185;28;20073;-63
2023/05/28 11:09:57;;;;;;;3.13;1.10;;;;;;;;;;4229397;28;20047;-63
2023/05/28 11:12:17;;;;;;;2.35;1.30;;;;;;;;;;4228250;28;20065;-62
2023/05/28 11:14:38;;;;;;;1.10;1.10;;;;;;;;;;4234249;28;20073;-64
2023/05/28 11:16:58;;;;;;;2.22;1.17;;;;;;;;;;4230748;28;20093;-62
2023/05/28 11:19:19;;;;;;;2.30;1.05;;;;;;;;;;4227308;28;20054;-63
2023/05/28 11:21:52;;;;;;;1.52;1.23;;;;;;;;;;4227675;28;20145;-63
2023/05/28 11:24:13;;;;;;;5.85;1.40;;;;;;;;;;4234102;28;20438;-63
2023/05/28 11:26:33;;;;;;;1.00;1.00;;;;;;;;;;4229453;28;20095;-63
2023/05/28 11:28:54;;;;;;;1.52;1.20;;;;;;;;;;4225955;28;20081;-63
2023/05/28 11:31:14;;;;;;;1.20;1.20;;;;;;;;;;4232176;28;20112;-63
2023/05/28 11:33:35;;;;;;;1.10;1.10;;;;;;;;;;4235623;28;20088;-63
2023/05/28 11:35:59;;;;;;;1.23;1.10;;;;;;;;;;4231307;28;20290;-63
2023/05/28 11:38:20;;;;;;;2.05;1.00;;;;;;;;;;4227864;28;20043;-63
2023/05/28 11:40:40;;;;;;;1.00;1.00;;;;;;;;;;4242519;28;20062;-63
2023/05/28 11:43:00;;;;;;;1.20;0.90;;;;;;;;;;4234443;28;20118;-63
2023/05/28 11:45:20;;;;;;;1.17;1.08;;;;;;;;;;4231972;28;20061;-63
2023/05/28 11:47:46;;;;;;;1.05;0.90;;;;;;;;;;4245810;28;20377;-62
2023/05/28 11:50:07;;;;;;;1.45;1.00;;;;;;;;;;4237597;28;20042;-63
2023/05/28 11:52:27;;;;;;;1.02;1.02;;;;;;;;;;4232880;28;20047;-63
2023/05/28 11:54:52;;;;;;;2.78;1.02;;;;;;;;;;4230605;28;20050;-63
2023/05/28 11:57:21;;;;;;;1.00;1.00;;;;;;;;;;4244235;28;20377;-63
2023/05/28 11:59:41;;;;;;;2.15;1.10;;;;;;;;;;4235547;28;20285;-63
2023/05/28 12:02:12;;;;;;;1.00;1.00;;;;;;;;;;4231120;28;20055;-63
2023/05/28 12:04:32;;;;;;;2.63;1.02;;;;;;;;;;4235833;28;20058;-63
2023/05/28 12:06:53;;;;;;;1.17;1.08;;;;;;;;;;4244125;28;20050;-64
2023/05/28 12:09:14;;;;;;;1.63;1.15;;;;;;;;;;4233722;28;20084;-62
2023/05/28 12:11:34;;;;;;;1.70;1.20;;;;;;;;;;4241691;28;20230;-63
2023/05/28 12:13:56;;;;;;;1.30;0.90;;;;;;;;;;4238547;28;20230;-63
2023/05/28 12:16:16;;;;;;;3.33;0.90;;;;;;;;;;4241212;28;20066;-63
2023/05/28 12:18:41;;;;;;;1.67;1.25;;;;;;;;;;4235918;28;20231;-63
2023/05/28 12:21:01;;;;;;;1.00;1.00;;;;;;;;;;4240889;28;20054;-62
2023/05/28 12:23:22;;;;;;;1.42;1.10;;;;;;;;;;4242615;28;20365;-63
2023/05/28 12:25:42;;;;;;;1.50;1.25;;;;;;;;;;4236934;28;20071;-63
2023/05/28 12:28:03;;;;;;;2.80;1.00;;;;;;;;;;4249319;28;20403;-63
2023/05/28 12:30:24;;;;;;;1.05;1.05;;;;;;;;;;4235580;28;20047;-63
2023/05/28 12:32:44;;;;;;;1.17;1.17;;;;;;;;;;4247387;28;20046;-62
2023/05/28 12:35:05;;;;;;;1.35;1.15;;;;;;;;;;4243320;28;20080;-63
2023/05/28 12:37:26;;;;;;;1.40;1.27;;;;;;;;;;4243308;28;20062;-63
2023/05/28 12:39:47;;;;;;;0.90;0.90;;;;;;;;;;4235432;28;20381;-63
2023/05/28 12:42:07;;;;;;;1.10;1.10;;;;;;;;;;4244929;28;20054;-63
2023/05/28 12:44:27;;;;;;;2.25;0.93;;;;;;;;;;4251542;28;20050;-62
2023/05/28 12:46:47;;;;;;;1.42;1.13;;;;;;;;;;4238817;28;20081;-63
2023/05/28 12:49:07;;;;;;;1.05;1.05;;;;;;;;;;4242653;28;20043;-63
2023/05/28 12:51:27;;;;;;;1.30;1.05;;;;;;;;;;4248379;28;20057;-63
2023/05/28 12:53:49;;;;;;;1.00;1.00;;;;;;;;;;4245642;28;20103;-63
2023/05/28 12:56:09;;;;;;;1.00;1.00;;;;;;;;;;4238341;28;20087;-63
2023/05/28 12:58:29;;;;;;;1.33;1.23;;;;;;;;;;4243243;28;20251;-62
2023/05/28 13:00:50;;;;;;;1.00;1.00;;;;;;;;;;4247289;28;20068;-63
2023/05/28 13:03:10;;;;;;;1.10;1.10;;;;;;;;;;4241996;28;20054;-63
2023/05/28 13:05:32;;;;;;;1.52;1.52;;;;;;;;;;4237564;28;20125;-63
2023/05/28 13:07:53;;;;;;;1.00;1.00;;;;;;;;;;4246339;28;20144;-63
2023/05/28 13:10:13;;;;;;;1.50;1.20;;;;;;;;;;4248124;27;20089;-62
2023/05/28 13:12:36;;;;;;;;;;;;;;;;;;4241829;28;20050;-63
2023/05/28 13:14:57;;;;;;;1.27;1.10;;;;;;;;;;4241711;28;19961;-63
2023/05/28 13:17:19;;;;;;;1.08;1.08;;;;;;;;;;4244811;28;20054;-62
2023/05/28 13:19:40;;;;;;;1.10;1.10;;;;;;;;;;4242938;28;20408;-63
2023/05/28 13:22:00;;;;;;;1.75;1.10;;;;;;;;;;4240297;28;20046;-63
2023/05/28 13:24:20;;;;;;;1.70;1.00;;;;;;;;;;4245967;28;20038;-63
2023/05/28 13:26:41;;;;;;;1.58;1.48;;;;;;;;;;4245967;28;20054;-63
2023/05/28 13:29:03;;;;;;;2.88;1.48;;;;;;;;;;4243225;28;20373;-62
2023/05/28 13:31:23;;;;;;;2.28;1.13;;;;;;;;;;4242548;28;20407;-62
2023/05/28 13:33:43;;;;;;;1.27;0.98;;;;;;;;;;4243272;28;20050;-62
2023/05/28 13:36:03;;;;;;;1.10;1.00;;;;;;;;;;4247503;28;20050;-62
2023/05/28 13:38:23;;;;;;;1.00;1.00;;;;;;;;;;4241433;28;20272;-63
2023/05/28 13:40:44;;;;;;;1.35;0.98;;;;;;;;;;4246020;28;20054;-63
2023/05/28 13:43:06;;;;;;;1.10;1.10;;;;;;;;;;4239765;28;20047;-63
2023/05/28 13:45:26;;;;;;;6.43;1.20;;;;;;;;;;4245210;28;20400;-62
2023/05/28 13:47:46;;;;;;;1.13;1.00;;;;;;;;;;4248206;28;20084;-62
2023/05/28 13:50:07;;;;;;;1.20;1.10;;;;;;;;;;4242290;28;20054;-62
2023/05/28 13:52:27;;;;;;;3.35;1.00;;;;;;;;;;4245182;27;20256;-62
2023/05/28 13:54:47;;;;;;;1.38;1.27;;;;;;;;;;4233027;28;20369;-61
2023/05/28 13:57:07;;;;;;;1.33;0.90;;;;;;;;;;4248218;28;20119;-62
2023/05/28 13:59:27;;;;;;;1.20;1.20;;;;;;;;;;4242357;28;20042;-62
2023/05/28 14:01:48;;;;;;;1.42;1.00;;;;;;;;;;4245419;28;20089;-62
2023/05/28 14:04:08;;;;;;;1.55;1.08;;;;;;;;;;4246652;28;20079;-62
2023/05/28 14:06:28;;;;;;;6.88;1.00;;;;;;;;;;4245426;28;20099;-62